Time;durP1;ratioP1;P1;durP2;ratioP2;P2;SDS_P1;SDS_P2;PMS_P1;PMS_P2;Temp;Humidity;BMP_temperature;BMP_pressure;BME280_temperature;BME280_humidity;BME280_pressure;Samples;Min_cycle;Max_cycle;Signal;HPM_P1;HPM_P2
2021/05/23 00:04:03;;;;;;;2.60;1.17;;;;;;;;;;10523546;28;20238;-69
2021/05/23 00:09:07;;;;;;;1.70;1.20;;;;;;;;;;10523876;28;20266;-69
2021/05/23 00:14:10;;;;;;;2.27;1.30;;;;;;;;;;10528557;28;20214;-70
2021/05/23 00:19:13;;;;;;;2.80;1.13;;;;;;;;;;10519770;28;20223;-70
2021/05/23 00:24:16;;;;;;;2.80;1.07;;;;;;;;;;10530526;28;20247;-70
2021/05/23 00:29:19;;;;;;;3.90;1.30;;;;;;;;;;10534185;28;20271;-70
2021/05/23 00:34:22;;;;;;;3.37;1.20;;;;;;;;;;10537621;28;20211;-69
2021/05/23 00:39:26;;;;;;;2.80;1.30;;;;;;;;;;10529247;28;20200;-68
2021/05/23 00:44:29;;;;;;;3.57;1.30;;;;;;;;;;10531744;28;20239;-70
2021/05/23 00:49:36;;;;;;;3.27;1.20;;;;;;;;;;10527430;28;20427;-70
2021/05/23 00:54:40;;;;;;;2.03;1.10;;;;;;;;;;10533679;28;20598;-71
2021/05/23 00:59:43;;;;;;;4.33;1.30;;;;;;;;;;10526991;28;20227;-69
2021/05/23 01:04:46;;;;;;;1.27;1.00;;;;;;;;;;10535528;28;20223;-68
2021/05/23 01:09:51;;;;;;;3.23;1.43;;;;;;;;;;10523997;28;20223;-70
2021/05/23 01:14:56;;;;;;;3.87;1.27;;;;;;;;;;10536588;28;20215;-70
2021/05/23 01:20:22;;;;;;;3.63;1.20;;;;;;;;;;10528652;28;20214;-71
2021/05/23 01:25:28;;;;;;;2.30;1.00;;;;;;;;;;10534042;28;20268;-70
2021/05/23 01:30:32;;;;;;;2.70;1.10;;;;;;;;;;10527935;28;20188;-69
2021/05/23 01:35:35;;;;;;;2.50;1.10;;;;;;;;;;10530640;28;20212;-68
2021/05/23 01:40:38;;;;;;;3.90;1.10;;;;;;;;;;10523721;28;20532;-68
2021/05/23 01:45:41;;;;;;;2.43;1.20;;;;;;;;;;10520578;28;20247;-69
2021/05/23 01:50:44;;;;;;;4.67;1.23;;;;;;;;;;10525705;28;20815;-69
2021/05/23 01:55:47;;;;;;;2.97;1.13;;;;;;;;;;10527393;28;20213;-69
2021/05/23 02:00:51;;;;;;;2.23;1.10;;;;;;;;;;10524681;28;20710;-69
2021/05/23 02:05:54;;;;;;;1.70;0.93;;;;;;;;;;10527076;28;20612;-69
2021/05/23 02:10:59;;;;;;;2.37;1.20;;;;;;;;;;10524669;28;20666;-68
2021/05/23 02:16:01;;;;;;;1.60;1.17;;;;;;;;;;10528216;28;20203;-69
2021/05/23 02:21:05;;;;;;;2.77;1.40;;;;;;;;;;10521610;28;20744;-69
2021/05/23 02:26:09;;;;;;;2.50;1.10;;;;;;;;;;10530074;28;20195;-69
2021/05/23 02:31:12;;;;;;;0.93;0.70;;;;;;;;;;10522382;28;20224;-70
2021/05/23 02:36:14;;;;;;;3.93;1.30;;;;;;;;;;10527002;28;20200;-70
2021/05/23 02:41:17;;;;;;;3.37;1.20;;;;;;;;;;10525270;28;20200;-70
2021/05/23 02:46:20;;;;;;;1.83;0.90;;;;;;;;;;10532971;28;20184;-69
2021/05/23 02:51:23;;;;;;;1.73;1.10;;;;;;;;;;10528414;28;20558;-70
2021/05/23 02:56:26;;;;;;;1.40;1.00;;;;;;;;;;10530226;28;20261;-69
2021/05/23 03:01:29;;;;;;;2.87;1.30;;;;;;;;;;10537799;28;20220;-69
2021/05/23 03:06:31;;;;;;;5.30;1.30;;;;;;;;;;10528024;28;20212;-70
2021/05/23 03:11:34;;;;;;;2.47;1.30;;;;;;;;;;10525815;28;20236;-69
2021/05/23 03:16:37;;;;;;;5.03;1.40;;;;;;;;;;10531947;28;20317;-69
2021/05/23 03:21:40;;;;;;;4.67;1.40;;;;;;;;;;10539548;27;20315;-70
2021/05/23 03:26:43;;;;;;;3.83;1.30;;;;;;;;;;10527182;28;20191;-69
2021/05/23 03:31:46;;;;;;;3.37;1.40;;;;;;;;;;10524889;28;20273;-69
2021/05/23 03:36:48;;;;;;;3.03;1.17;;;;;;;;;;10524146;28;20212;-69
2021/05/23 03:41:52;;;;;;;3.10;1.30;;;;;;;;;;10523275;28;20228;-68
2021/05/23 03:46:54;;;;;;;5.13;1.40;;;;;;;;;;10529240;28;20180;-69
2021/05/23 03:51:57;;;;;;;3.37;1.50;;;;;;;;;;10519988;28;20219;-69
2021/05/23 03:57:00;;;;;;;2.73;1.27;;;;;;;;;;10535928;28;20212;-70
2021/05/23 04:02:03;;;;;;;2.57;1.07;;;;;;;;;;10530031;28;20294;-69
2021/05/23 04:07:05;;;;;;;3.13;1.40;;;;;;;;;;10527930;28;20266;-69
2021/05/23 04:12:10;;;;;;;1.33;0.90;;;;;;;;;;10528913;28;20220;-69
2021/05/23 04:17:33;;;;;;;2.20;0.90;;;;;;;;;;10519704;28;20212;-70
2021/05/23 04:22:44;;;;;;;2.60;0.70;;;;;;;;;;10530294;28;20212;-70
2021/05/23 04:27:48;;;;;;;2.77;0.80;;;;;;;;;;10525218;28;20674;-69
2021/05/23 04:32:51;;;;;;;1.30;0.70;;;;;;;;;;10528591;28;20241;-69
2021/05/23 04:37:54;;;;;;;0.70;0.30;;;;;;;;;;10521043;28;20237;-68
2021/05/23 04:42:58;;;;;;;0.30;0.30;;;;;;;;;;10526004;28;20306;-67
2021/05/23 04:48:07;;;;;;;1.07;0.43;;;;;;;;;;10529158;28;20221;-70
2021/05/23 04:53:10;;;;;;;0.77;0.60;;;;;;;;;;10523960;28;20687;-71
2021/05/23 04:58:13;;;;;;;0.67;0.50;;;;;;;;;;10522810;28;20295;-69
2021/05/23 05:03:15;;;;;;;0.50;0.30;;;;;;;;;;10527244;28;20235;-69
2021/05/23 05:08:18;;;;;;;1.77;0.53;;;;;;;;;;10520342;28;20192;-67
2021/05/23 05:13:22;;;;;;;0.50;0.50;;;;;;;;;;10549506;28;20262;-66
2021/05/23 05:18:24;;;;;;;2.30;0.50;;;;;;;;;;10534216;28;20601;-66
2021/05/23 05:23:27;;;;;;;0.93;0.37;;;;;;;;;;10531571;28;22427;-69
2021/05/23 05:28:30;;;;;;;1.53;0.53;;;;;;;;;;10547712;28;20192;-69
2021/05/23 05:33:33;;;;;;;1.17;0.40;;;;;;;;;;10530724;28;20212;-70
2021/05/23 05:38:35;;;;;;;1.07;0.50;;;;;;;;;;10536359;28;20604;-70
2021/05/23 05:43:39;;;;;;;0.43;0.40;;;;;;;;;;10535172;28;20216;-70
2021/05/23 05:48:42;;;;;;;1.70;0.40;;;;;;;;;;10535840;28;20532;-69
2021/05/23 05:53:45;;;;;;;0.27;0.20;;;;;;;;;;10536814;28;20211;-70
2021/05/23 05:58:48;;;;;;;1.03;0.50;;;;;;;;;;10533429;28;20567;-69
2021/05/23 06:03:52;;;;;;;0.20;0.20;;;;;;;;;;10537194;28;20222;-70
2021/05/23 06:08:55;;;;;;;0.13;0.13;;;;;;;;;;10525057;28;20188;-69
2021/05/23 06:14:07;;;;;;;0.67;0.30;;;;;;;;;;10544940;28;20218;-68
2021/05/23 06:19:10;;;;;;;0.50;0.47;;;;;;;;;;10530842;28;20211;-69
2021/05/23 06:24:12;;;;;;;0.87;0.23;;;;;;;;;;10535296;28;20912;-70
2021/05/23 06:29:16;;;;;;;0.83;0.47;;;;;;;;;;10533266;28;20184;-69
2021/05/23 06:34:19;;;;;;;0.30;0.30;;;;;;;;;;10533385;28;20212;-69
2021/05/23 06:39:22;;;;;;;0.77;0.40;;;;;;;;;;10519983;28;20220;-69
2021/05/23 06:44:25;;;;;;;0.40;0.23;;;;;;;;;;10526141;28;20204;-69
2021/05/23 06:49:28;;;;;;;0.40;0.30;;;;;;;;;;10524910;28;20198;-70
2021/05/23 06:54:30;;;;;;;0.40;0.30;;;;;;;;;;10527575;28;20220;-70
2021/05/23 06:59:33;;;;;;;0.57;0.30;;;;;;;;;;10522037;28;20235;-70
2021/05/23 07:04:36;;;;;;;0.53;0.37;;;;;;;;;;10527915;28;20307;-70
2021/05/23 07:09:39;;;;;;;0.20;0.20;;;;;;;;;;10528328;28;20214;-69
2021/05/23 07:14:43;;;;;;;0.13;0.13;;;;;;;;;;10526134;28;20223;-69
2021/05/23 07:19:45;;;;;;;2.13;0.37;;;;;;;;;;10529519;28;20280;-70
2021/05/23 07:24:48;;;;;;;1.03;0.30;;;;;;;;;;10529215;28;20211;-68
2021/05/23 07:29:51;;;;;;;1.23;0.60;;;;;;;;;;10530570;28;20290;-69
2021/05/23 07:34:53;;;;;;;0.47;0.47;;;;;;;;;;10528460;28;20223;-70
2021/05/23 07:39:57;;;;;;;0.33;0.30;;;;;;;;;;10524915;28;20336;-69
2021/05/23 07:45:00;;;;;;;0.40;0.30;;;;;;;;;;10528912;28;20225;-69
2021/05/23 07:50:03;;;;;;;1.80;0.50;;;;;;;;;;10520231;28;20231;-69
2021/05/23 07:55:06;;;;;;;0.40;0.40;;;;;;;;;;10528904;28;20221;-70
2021/05/23 08:00:10;;;;;;;1.50;0.57;;;;;;;;;;10519832;28;20210;-70
2021/05/23 08:05:13;;;;;;;1.07;0.70;;;;;;;;;;10526580;28;20204;-69
2021/05/23 08:10:15;;;;;;;2.03;0.60;;;;;;;;;;10525311;28;20272;-68
2021/05/23 08:15:18;;;;;;;0.50;0.47;;;;;;;;;;10525115;28;20191;-69
2021/05/23 08:20:21;;;;;;;1.27;0.50;;;;;;;;;;10524069;28;20258;-69
2021/05/23 08:25:23;;;;;;;0.93;0.30;;;;;;;;;;10525012;28;20417;-70
2021/05/23 08:30:27;;;;;;;0.77;0.47;;;;;;;;;;10526278;28;20211;-69
2021/05/23 08:35:29;;;;;;;1.50;0.70;;;;;;;;;;10524476;28;20195;-68
2021/05/23 08:40:31;;;;;;;1.30;0.63;;;;;;;;;;10528811;28;20219;-68
2021/05/23 08:45:34;;;;;;;2.50;1.13;;;;;;;;;;10534724;28;20546;-67
2021/05/23 08:50:36;;;;;;;1.77;0.70;;;;;;;;;;10530163;28;20660;-68
2021/05/23 08:55:41;;;;;;;1.77;0.60;;;;;;;;;;10528057;28;20245;-69
2021/05/23 09:00:44;;;;;;;1.47;0.80;;;;;;;;;;10533878;28;20211;-70
2021/05/23 09:05:48;;;;;;;1.00;0.70;;;;;;;;;;10531581;28;20200;-70
2021/05/23 09:10:51;;;;;;;1.70;0.60;;;;;;;;;;10529429;28;20223;-69
2021/05/23 09:15:58;;;;;;;1.47;0.57;;;;;;;;;;10530781;28;20283;-70
2021/05/23 09:21:01;;;;;;;2.13;0.70;;;;;;;;;;10531871;28;20686;-69
2021/05/23 09:26:03;;;;;;;1.13;0.70;;;;;;;;;;10527308;28;20585;-68
2021/05/23 09:31:10;;;;;;;1.70;0.80;;;;;;;;;;10519239;28;20498;-70
2021/05/23 09:36:13;;;;;;;1.83;0.70;;;;;;;;;;10531534;28;20620;-70
2021/05/23 09:41:19;;;;;;;1.63;0.70;;;;;;;;;;10531131;28;20223;-71
2021/05/23 09:46:22;;;;;;;1.63;0.70;;;;;;;;;;10529181;28;20196;-69
2021/05/23 09:51:25;;;;;;;2.00;0.70;;;;;;;;;;10528142;28;20646;-70
2021/05/23 09:56:31;;;;;;;1.30;0.70;;;;;;;;;;10529981;28;20274;-70
2021/05/23 10:01:34;;;;;;;2.00;0.70;;;;;;;;;;10532877;28;20250;-70
2021/05/23 10:06:38;;;;;;;3.40;0.87;;;;;;;;;;10524649;28;20279;-70
2021/05/23 10:11:40;;;;;;;1.77;1.03;;;;;;;;;;10529114;28;20281;-69
2021/05/23 10:16:44;;;;;;;2.83;0.80;;;;;;;;;;10528726;28;20291;-70
2021/05/23 10:21:47;;;;;;;2.37;0.93;;;;;;;;;;10527033;28;20759;-71
2021/05/23 10:26:50;;;;;;;2.83;1.10;;;;;;;;;;10526690;28;20192;-69
2021/05/23 10:32:04;;;;;;;1.23;1.13;;;;;;;;;;10529634;28;20250;-71
2021/05/23 10:37:06;;;;;;;1.50;1.17;;;;;;;;;;10530457;28;20212;-70
2021/05/23 10:42:12;;;;;;;2.13;1.20;;;;;;;;;;10522405;28;20528;-68
2021/05/23 10:47:16;;;;;;;1.50;1.10;;;;;;;;;;10529721;28;20828;-72
2021/05/23 10:52:18;;;;;;;3.22;1.30;;;;;;;;;;10524991;28;20318;-71
2021/05/23 10:57:21;;;;;;;2.83;1.40;;;;;;;;;;10523667;28;20260;-68
2021/05/23 11:02:34;;;;;;;2.10;1.20;;;;;;;;;;10531809;28;20219;-70
2021/05/23 11:07:37;;;;;;;1.40;1.30;;;;;;;;;;10527600;28;20188;-70
2021/05/23 11:12:47;;;;;;;1.48;0.90;;;;;;;;;;10530707;28;20698;-71
2021/05/23 11:17:51;;;;;;;1.52;1.13;;;;;;;;;;10528772;28;20222;-70
2021/05/23 11:23:00;;;;;;;2.05;1.20;;;;;;;;;;10531382;28;20225;-69
2021/05/23 11:28:03;;;;;;;1.98;1.08;;;;;;;;;;10526962;28;20647;-70
2021/05/23 11:33:08;;;;;;;1.08;0.90;;;;;;;;;;10523051;28;20215;-70
2021/05/23 11:38:11;;;;;;;3.40;1.00;;;;;;;;;;10526946;28;20235;-70
2021/05/23 11:43:15;;;;;;;1.10;1.00;;;;;;;;;;10545084;28;20566;-71
2021/05/23 11:48:19;;;;;;;2.22;1.02;;;;;;;;;;10531216;28;20942;-70
2021/05/23 11:53:21;;;;;;;1.38;1.02;;;;;;;;;;10526773;28;20734;-70
2021/05/23 11:58:24;;;;;;;2.83;1.10;;;;;;;;;;10528828;28;20216;-68
2021/05/23 12:03:27;;;;;;;1.77;1.00;;;;;;;;;;10529182;28;20275;-69
2021/05/23 12:08:30;;;;;;;4.25;1.50;;;;;;;;;;10525691;28;20298;-70
2021/05/23 12:13:36;;;;;;;1.30;0.95;;;;;;;;;;10524596;28;20689;-69
2021/05/23 12:18:43;;;;;;;2.60;1.30;;;;;;;;;;10551148;28;20213;-69
2021/05/23 12:23:48;;;;;;;1.03;0.60;;;;;;;;;;10551426;28;20214;-69
2021/05/23 12:28:51;;;;;;;5.07;1.97;;;;;;;;;;10543276;27;20191;-68
2021/05/23 12:33:56;;;;;;;1.27;0.70;;;;;;;;;;10531586;28;20237;-70
2021/05/23 12:38:59;;;;;;;5.10;1.00;;;;;;;;;;10541262;28;20200;-70
2021/05/23 12:44:02;;;;;;;2.47;0.70;;;;;;;;;;10535079;28;20211;-74
2021/05/23 12:49:14;;;;;;;1.10;0.90;;;;;;;;;;10529914;28;20195;-71
2021/05/23 12:54:25;;;;;;;1.20;0.90;;;;;;;;;;10524142;28;20632;-70
2021/05/23 12:59:28;;;;;;;1.58;1.00;;;;;;;;;;10522072;28;20204;-71
2021/05/23 13:04:33;;;;;;;0.85;0.80;;;;;;;;;;10526409;28;20322;-70
2021/05/23 13:09:38;;;;;;;2.55;1.10;;;;;;;;;;10545488;28;20655;-71
2021/05/23 13:14:52;;;;;;;0.90;0.77;;;;;;;;;;10520082;28;20242;-70
2021/05/23 13:19:55;;;;;;;1.33;0.90;;;;;;;;;;10529557;28;20211;-70
2021/05/23 13:24:58;;;;;;;2.38;0.90;;;;;;;;;;10524258;28;20691;-72
2021/05/23 13:30:01;;;;;;;1.20;0.70;;;;;;;;;;10517286;28;20198;-70
2021/05/23 13:35:06;;;;;;;2.00;0.85;;;;;;;;;;10527778;28;20280;-70
2021/05/23 13:40:08;;;;;;;2.35;1.52;;;;;;;;;;10523547;28;20303;-69
2021/05/23 13:45:11;;;;;;;1.67;0.75;;;;;;;;;;10525326;28;20243;-69
2021/05/23 13:50:23;;;;;;;1.40;1.02;;;;;;;;;;10521587;28;20278;-70
2021/05/23 13:55:25;;;;;;;2.65;0.98;;;;;;;;;;10517801;28;20192;-69
2021/05/23 14:00:28;;;;;;;1.10;0.77;;;;;;;;;;10519311;28;20218;-70
2021/05/23 14:05:31;;;;;;;1.53;0.60;;;;;;;;;;10518765;28;20283;-69
2021/05/23 14:10:33;;;;;;;2.63;1.50;;;;;;;;;;10500300;28;631403;-68
2021/05/23 14:15:36;;;;;;;1.37;0.60;;;;;;;;;;10543089;28;20568;-69
2021/05/23 14:20:47;;;;;;;1.10;0.57;;;;;;;;;;10530921;28;20545;-70
2021/05/23 14:25:50;;;;;;;0.83;0.60;;;;;;;;;;10529570;28;20232;-70
2021/05/23 14:30:53;;;;;;;1.20;0.60;;;;;;;;;;10527550;28;20238;-70
2021/05/23 14:35:56;;;;;;;0.90;0.60;;;;;;;;;;10527001;28;20234;-70
2021/05/23 14:40:58;;;;;;;11.90;6.73;;;;;;;;;;10523227;28;20711;-70
2021/05/23 14:46:01;;;;;;;2.20;0.97;;;;;;;;;;10527569;28;20188;-71
2021/05/23 14:51:05;;;;;;;0.90;0.50;;;;;;;;;;10516511;28;20196;-71
2021/05/23 14:56:07;;;;;;;0.40;0.40;;;;;;;;;;10519015;28;20188;-71
2021/05/23 15:01:09;;;;;;;2.63;0.67;;;;;;;;;;10524153;28;20315;-71
2021/05/23 15:06:13;;;;;;;1.37;0.73;;;;;;;;;;10522400;28;20218;-71
2021/05/23 15:11:15;;;;;;;3.30;0.70;;;;;;;;;;10525436;28;20219;-71
2021/05/23 15:16:17;;;;;;;1.63;0.90;;;;;;;;;;10522451;28;20199;-71
2021/05/23 15:21:20;;;;;;;0.83;0.70;;;;;;;;;;10527094;28;20215;-70
2021/05/23 15:26:30;;;;;;;1.23;0.60;;;;;;;;;;10525166;28;20199;-70
2021/05/23 15:31:32;;;;;;;4.53;1.90;;;;;;;;;;10512143;28;20628;-71
2021/05/23 15:36:35;;;;;;;1.10;0.80;;;;;;;;;;10529668;28;20191;-70
2021/05/23 15:41:39;;;;;;;1.97;0.90;;;;;;;;;;10525604;28;20220;-70
2021/05/23 15:46:41;;;;;;;1.50;0.70;;;;;;;;;;10520586;28;20226;-70
2021/05/23 15:51:44;;;;;;;1.73;0.70;;;;;;;;;;10526570;28;20211;-70
2021/05/23 15:56:46;;;;;;;3.67;0.70;;;;;;;;;;10519089;28;20187;-69
2021/05/23 16:01:48;;;;;;;2.43;1.10;;;;;;;;;;10516054;28;20584;-69
2021/05/23 16:06:51;;;;;;;1.57;0.70;;;;;;;;;;10525911;28;20191;-69
2021/05/23 16:11:53;;;;;;;1.97;0.70;;;;;;;;;;10517924;28;20265;-69
2021/05/23 16:16:55;;;;;;;0.60;0.60;;;;;;;;;;10522335;28;20282;-68
2021/05/23 16:21:58;;;;;;;1.53;0.90;;;;;;;;;;10516619;28;20227;-69
2021/05/23 16:27:01;;;;;;;4.03;1.13;;;;;;;;;;10523089;28;20211;-70
2021/05/23 16:32:03;;;;;;;4.67;1.90;;;;;;;;;;10522968;28;20207;-68
2021/05/23 16:37:06;;;;;;;1.67;0.90;;;;;;;;;;10523098;28;20203;-68
2021/05/23 16:42:08;;;;;;;2.23;0.90;;;;;;;;;;10526939;28;20220;-69
2021/05/23 16:47:10;;;;;;;0.77;0.67;;;;;;;;;;10517431;28;20300;-70
2021/05/23 16:52:13;;;;;;;1.57;1.10;;;;;;;;;;10519346;28;20204;-70
2021/05/23 16:57:15;;;;;;;0.90;0.57;;;;;;;;;;10517514;28;20778;-70
2021/05/23 17:02:17;;;;;;;3.17;0.87;;;;;;;;;;10517608;28;20228;-70
2021/05/23 17:07:21;;;;;;;2.00;0.80;;;;;;;;;;10525294;28;20247;-69
2021/05/23 17:12:24;;;;;;;2.27;0.80;;;;;;;;;;10524630;28;20292;-69
2021/05/23 17:17:26;;;;;;;1.13;0.63;;;;;;;;;;10532210;28;20196;-70
2021/05/23 17:22:29;;;;;;;2.77;1.17;;;;;;;;;;10545631;28;20223;-68
2021/05/23 17:27:32;;;;;;;1.77;0.90;;;;;;;;;;10524305;28;20199;-70
2021/05/23 17:32:35;;;;;;;1.03;0.47;;;;;;;;;;10529075;28;20290;-70
2021/05/23 17:37:38;;;;;;;2.20;1.10;;;;;;;;;;10530601;28;20249;-70
2021/05/23 17:42:41;;;;;;;2.30;0.77;;;;;;;;;;10525286;28;20337;-69
2021/05/23 17:47:43;;;;;;;2.57;1.00;;;;;;;;;;10522259;28;20199;-67
2021/05/23 17:52:46;;;;;;;6.50;2.70;;;;;;;;;;10527855;28;20288;-70
2021/05/23 17:57:51;;;;;;;2.00;1.10;;;;;;;;;;10520067;28;20223;-70
2021/05/23 18:02:54;;;;;;;2.60;1.20;;;;;;;;;;10530335;28;20250;-70
2021/05/23 18:07:57;;;;;;;1.53;0.63;;;;;;;;;;10520392;28;20234;-68
2021/05/23 18:12:59;;;;;;;3.73;1.40;;;;;;;;;;10528247;28;20227;-70
2021/05/23 18:18:01;;;;;;;2.07;0.90;;;;;;;;;;10521456;28;20278;-69
2021/05/23 18:23:04;;;;;;;1.87;0.80;;;;;;;;;;10527703;28;20219;-70
2021/05/23 18:28:07;;;;;;;3.37;1.00;;;;;;;;;;10525811;28;20206;-69
2021/05/23 18:33:09;;;;;;;2.63;1.10;;;;;;;;;;10523043;28;20204;-70
2021/05/23 18:38:15;;;;;;;3.23;1.10;;;;;;;;;;10524543;28;20200;-69
2021/05/23 18:43:17;;;;;;;2.93;1.20;;;;;;;;;;10530043;28;20219;-69
2021/05/23 18:48:20;;;;;;;6.83;2.80;;;;;;;;;;10529424;28;20195;-69
2021/05/23 18:53:23;;;;;;;1.10;0.87;;;;;;;;;;10533355;28;20223;-70
2021/05/23 18:58:26;;;;;;;4.43;1.80;;;;;;;;;;10526943;28;20440;-70
2021/05/23 19:03:28;;;;;;;1.93;1.10;;;;;;;;;;10529011;28;20208;-69
2021/05/23 19:08:33;;;;;;;3.27;1.40;;;;;;;;;;10523330;28;20192;-69
2021/05/23 19:13:35;;;;;;;3.73;1.30;;;;;;;;;;10526963;28;20301;-70
2021/05/23 19:18:39;;;;;;;6.47;2.80;;;;;;;;;;10515763;28;20635;-71
2021/05/23 19:23:43;;;;;;;4.37;1.90;;;;;;;;;;10522454;28;20315;-70
2021/05/23 19:28:46;;;;;;;6.40;1.90;;;;;;;;;;10518370;28;20286;-69
2021/05/23 19:33:48;;;;;;;6.43;1.80;;;;;;;;;;10527230;28;20583;-70
2021/05/23 19:38:52;;;;;;;5.80;2.30;;;;;;;;;;10524190;28;20702;-69
2021/05/23 19:43:54;;;;;;;6.17;2.40;;;;;;;;;;10523088;28;20679;-69
2021/05/23 19:48:56;;;;;;;4.40;1.90;;;;;;;;;;10523299;28;20195;-69
2021/05/23 19:53:59;;;;;;;7.00;2.57;;;;;;;;;;10525730;28;20294;-71
2021/05/23 19:59:02;;;;;;;6.27;3.00;;;;;;;;;;10525740;28;20591;-69
2021/05/23 20:04:04;;;;;;;7.20;3.20;;;;;;;;;;10527813;28;20360;-69
2021/05/23 20:09:07;;;;;;;8.87;2.77;;;;;;;;;;10522424;28;20298;-69
2021/05/23 20:14:10;;;;;;;6.43;2.93;;;;;;;;;;10528231;28;20247;-69
2021/05/23 20:19:13;;;;;;;8.80;2.90;;;;;;;;;;10518932;28;20254;-71
2021/05/23 20:24:17;;;;;;;8.27;3.87;;;;;;;;;;10527532;28;20220;-69
2021/05/23 20:29:20;;;;;;;8.47;4.00;;;;;;;;;;10516646;28;20378;-69
2021/05/23 20:34:27;;;;;;;9.73;4.47;;;;;;;;;;10516931;28;20211;-70
2021/05/23 20:39:30;;;;;;;12.47;6.33;;;;;;;;;;10532445;28;20207;-70
2021/05/23 20:44:32;;;;;;;9.03;4.23;;;;;;;;;;10531575;28;20245;-70
2021/05/23 20:49:35;;;;;;;12.30;6.60;;;;;;;;;;10517233;28;20674;-69
2021/05/23 20:54:38;;;;;;;8.60;3.63;;;;;;;;;;10533032;28;20231;-69
2021/05/23 20:59:41;;;;;;;11.13;4.33;;;;;;;;;;10531198;28;20220;-68
2021/05/23 21:04:45;;;;;;;8.80;3.90;;;;;;;;;;10529773;28;20658;-69
2021/05/23 21:09:48;;;;;;;6.03;2.60;;;;;;;;;;10530602;28;20305;-70
2021/05/23 21:14:52;;;;;;;7.23;2.70;;;;;;;;;;10523867;28;20224;-69
2021/05/23 21:19:54;;;;;;;4.87;2.17;;;;;;;;;;10530752;28;20211;-69
2021/05/23 21:24:57;;;;;;;6.20;2.40;;;;;;;;;;10532610;28;20216;-69
2021/05/23 21:30:00;;;;;;;4.27;2.20;;;;;;;;;;10536192;27;20269;-69
2021/05/23 21:35:03;;;;;;;4.33;1.90;;;;;;;;;;10530320;28;20272;-69
2021/05/23 21:40:08;;;;;;;4.20;1.90;;;;;;;;;;10526341;28;20571;-69
2021/05/23 21:45:11;;;;;;;3.90;1.70;;;;;;;;;;10526815;28;20220;-69
2021/05/23 21:50:14;;;;;;;4.10;1.43;;;;;;;;;;10533227;28;20191;-69
2021/05/23 21:55:18;;;;;;;4.80;1.80;;;;;;;;;;10528293;28;20211;-70
2021/05/23 22:00:20;;;;;;;3.83;1.40;;;;;;;;;;10522081;28;20204;-70
2021/05/23 22:05:23;;;;;;;3.60;1.60;;;;;;;;;;10521513;28;20188;-70
2021/05/23 22:10:27;;;;;;;2.70;1.50;;;;;;;;;;10529907;28;20191;-70
2021/05/23 22:15:49;;;;;;;4.47;1.70;;;;;;;;;;10530430;28;20211;-69
2021/05/23 22:20:53;;;;;;;2.67;1.20;;;;;;;;;;10523441;28;20220;-72
2021/05/23 22:25:57;;;;;;;4.77;1.63;;;;;;;;;;10526939;28;20254;-69
2021/05/23 22:31:01;;;;;;;4.93;1.60;;;;;;;;;;10522759;28;20542;-70
2021/05/23 22:36:04;;;;;;;1.77;1.20;;;;;;;;;;10527480;28;20253;-70
2021/05/23 22:41:08;;;;;;;1.90;0.70;;;;;;;;;;10528882;28;20215;-70
2021/05/23 22:46:11;;;;;;;2.37;1.00;;;;;;;;;;10540917;28;20287;-71
2021/05/23 22:51:13;;;;;;;2.40;0.93;;;;;;;;;;10527504;28;20209;-71
2021/05/23 22:56:17;;;;;;;1.43;1.20;;;;;;;;;;10525834;28;20211;-70
2021/05/23 23:01:23;;;;;;;3.00;0.70;;;;;;;;;;10531404;28;20302;-69
2021/05/23 23:06:25;;;;;;;3.03;1.23;;;;;;;;;;10527897;28;20750;-70
2021/05/23 23:11:29;;;;;;;1.20;0.57;;;;;;;;;;10525947;28;20224;-70
2021/05/23 23:16:32;;;;;;;1.30;0.90;;;;;;;;;;10527512;28;20278;-70
2021/05/23 23:21:35;;;;;;;2.00;0.90;;;;;;;;;;10526369;28;20227;-70
2021/05/23 23:26:39;;;;;;;1.10;0.83;;;;;;;;;;10528381;28;20386;-70
2021/05/23 23:31:42;;;;;;;2.20;1.20;;;;;;;;;;10519837;28;20207;-68
2021/05/23 23:36:44;;;;;;;1.93;1.30;;;;;;;;;;10526119;28;20409;-70
2021/05/23 23:41:48;;;;;;;0.60;0.60;;;;;;;;;;10528634;28;20219;-70
2021/05/23 23:46:51;;;;;;;2.10;1.10;;;;;;;;;;10530707;28;20256;-70
2021/05/23 23:51:53;;;;;;;1.87;1.00;;;;;;;;;;10519739;28;20211;-70
2021/05/23 23:56:57;;;;;;;3.30;1.20;;;;;;;;;;10527582;28;20771;-70
